»·PEaware :: N1BD KBZN-KHLN

N1BD :: KBZN-KHLN

FLIGHT INFORMATION

Flight Status: Arrived
Operator: Privately registered:
United States
More flights under this callsign
Pilot: Renato C. (3281)
Aircraft: BEECH AIRCRAFT SUPER KING AIR 350
(B350)
More flights by this aircraft type
Origin: KBZN Gallatin
United States
Destination: KHLN Helena Regl
United States
More flights between these airports :: More routes between these airports
Route: HIA5 HIA V21 HLN
File this flight plan on PilotEdge
Remarks:
Altitude:
(Current/Filed)
11,000ft
Speed:
(Current/Filed)
250kts
Departed: 03-May-20 11:38 AM
Arrived: 03-May-20 12:19 PM
Distance/Time
Traveled:
60nm/0:40
Distance/Time
To Go:
Arrived

Flight Plot

Page will automatically refresh every two minutes.

Flight plan parsing failed; only flown route is shown


Map Options




Map Legend


Flown Route
Filed Route
Departure Airport
Arrival Airport
Navaid (VOR, NDB)
Fix

Horizontal Profiles

Position Reports

Time Latitude Longitude Heading Altitude Ground
Speed
03-May-20 11:26 45.774828 -111.154643 112 4461ft 0kts
03-May-20 11:27 45.774828 -111.154643 112 4461ft 0kts
03-May-20 11:28 45.774828 -111.154643 112 4461ft 0kts
03-May-20 11:29 45.774828 -111.154643 112 4461ft 0kts
03-May-20 11:30 45.774828 -111.154643 112 4461ft 0kts
03-May-20 11:31 45.774828 -111.154643 112 4461ft 0kts
03-May-20 11:32 45.774924 -111.153912 53 4460ft 0kts
03-May-20 11:33 45.775538 -111.153346 346 4459ft 11kts
03-May-20 11:34 45.778734 -111.157631 315 4453ft 17kts
03-May-20 11:35 45.782909 -111.163446 315 4445ft 25kts
03-May-20 11:36 45.786903 -111.168033 43 4433ft 11kts
03-May-20 11:37 45.784720 -111.161880 136 4439ft 92kts
03-May-20 11:38 45.755603 -111.123696 167 5431ft 159kts
03-May-20 11:39 45.739918 -111.168298 267 7074ft 158kts
03-May-20 11:40 45.738455 -111.232965 265 8383ft 165kts
03-May-20 11:41 45.729697 -111.295433 241 9620ft 161kts
03-May-20 11:42 45.704495 -111.352281 239 10482ft 173kts
03-May-20 11:43 45.679984 -111.414761 240 10969ft 196kts
03-May-20 11:44 45.664305 -111.491824 286 10949ft 232kts
03-May-20 11:45 45.689017 -111.578952 290 11014ft 239kts
03-May-20 11:46 45.717689 -111.666343 282 10962ft 242kts
03-May-20 11:47 45.741589 -111.755991 291 10980ft 246kts
03-May-20 11:48 45.767532 -111.845788 283 10921ft 247kts
03-May-20 11:49 45.796353 -111.934584 288 11023ft 245kts
03-May-20 11:50 45.819665 -112.025911 289 11039ft 246kts
03-May-20 11:51 45.846156 -112.115418 287 11067ft 250kts
03-May-20 11:52 45.902601 -112.158964 6 11028ft 278kts
03-May-20 11:53 45.978680 -112.137698 11 11051ft 281kts
03-May-20 11:54 46.055126 -112.115166 4 11053ft 280kts
03-May-20 11:55 46.132158 -112.095378 7 11037ft 281kts
03-May-20 11:56 46.208832 -112.071858 12 11033ft 283kts
03-May-20 11:57 46.283516 -112.040642 11 11029ft 283kts
03-May-20 11:58 46.360541 -112.019761 3 10999ft 281kts
03-May-20 11:59 46.439437 -111.998976 8 10376ft 299kts
03-May-20 12:00 46.520726 -111.981679 8 10001ft 289kts
03-May-20 12:01 46.587293 -111.935413 71 9929ft 268kts
03-May-20 12:02 46.584288 -111.837176 104 9686ft 216kts
03-May-20 12:03 46.569235 -111.754164 108 9713ft 218kts
03-May-20 12:04 46.584164 -111.669796 72 8897ft 214kts
03-May-20 12:05 46.562664 -111.624634 228 7764ft 170kts
03-May-20 12:06 46.560050 -111.689217 274 7374ft 153kts
03-May-20 12:07 46.569149 -111.744331 278 6895ft 137kts
03-May-20 12:08 46.576858 -111.797987 277 6201ft 136kts
03-May-20 12:09 46.585680 -111.850600 280 5425ft 131kts
03-May-20 12:10 46.592257 -111.894814 280 4743ft 96kts
03-May-20 12:11 46.598534 -111.933654 280 4284ft 102kts
03-May-20 12:12 46.604600 -111.972882 282 3872ft 97kts
03-May-20 12:13 46.610750 -112.018419 285 5230ft 125kts
03-May-20 12:14 46.643011 -111.999088 81 5063ft 180kts
03-May-20 12:15 46.633193 -111.929470 124 4559ft 158kts
03-May-20 12:16 46.601936 -111.928163 233 4345ft 103kts
03-May-20 12:17 46.603647 -111.966861 281 3846ft 91kts
03-May-20 12:18 46.606123 -111.982842 282 3850ft 25kts
03-May-20 12:19 46.603856 -111.983026 130 3859ft 15kts

Navigation Log

Ident Type
Flight plan parsing failed, navigation log unavailable